Time;durP1;ratioP1;P1;durP2;ratioP2;P2;SDS_P1;SDS_P2;PMS_P1;PMS_P2;Temp;Humidity;BMP_temperature;BMP_pressure;BME280_temperature;BME280_humidity;BME280_pressure;Samples;Min_cycle;Max_cycle;Signal;HPM_P1;HPM_P2
2022/07/14 00:01:43;;;;;;;7.05;4.68;;;;;;;-141.48;100.00;69781.59;4956931;30;20110;-60
2022/07/14 00:04:13;;;;;;;7.13;5.78;;;;;;;-141.48;100.00;69781.59;4955107;30;20069;-61
2022/07/14 00:06:44;;;;;;;5.40;4.65;;;;;;;-141.48;100.00;69781.59;4940088;30;20401;-61
2022/07/14 00:09:14;;;;;;;7.70;6.35;;;;;;;-141.48;100.00;69781.59;4957888;30;20031;-61
2022/07/14 00:11:45;;;;;;;7.32;4.80;;;;;;;-141.48;100.00;69781.59;4958286;30;20039;-61
2022/07/14 00:14:15;;;;;;;5.00;4.57;;;;;;;-141.48;100.00;69781.59;4956802;29;20084;-60
2022/07/14 00:16:49;;;;;;;7.93;5.50;;;;;;;-141.48;100.00;69781.59;4935678;30;20460;-60
2022/07/14 00:19:19;;;;;;;5.35;4.95;;;;;;;-141.48;100.00;69781.59;4952004;30;20031;-59
2022/07/14 00:21:49;;;;;;;7.88;5.40;;;;;;;-141.48;100.00;69781.59;4952105;30;20459;-61
2022/07/14 00:24:20;;;;;;;6.68;6.10;;;;;;;-141.48;100.00;69781.59;4954385;30;20031;-62
2022/07/14 00:26:50;;;;;;;6.25;5.75;;;;;;;-141.48;100.00;69781.59;4956341;29;20039;-62
2022/07/14 00:29:21;;;;;;;5.53;5.18;;;;;;;-141.48;100.00;69781.59;4939594;30;20032;-61
2022/07/14 00:31:51;;;;;;;9.20;6.03;;;;;;;-141.48;100.00;69781.59;4954236;30;20118;-63
2022/07/14 00:34:21;;;;;;;15.77;6.03;;;;;;;-141.48;100.00;69781.59;4952978;30;20035;-62
2022/07/14 00:36:52;;;;;;;5.55;4.93;;;;;;;-141.48;100.00;69781.59;4936495;30;20095;-63
2022/07/14 00:39:22;;;;;;;12.80;6.22;;;;;;;-141.48;100.00;69781.59;4952817;30;20114;-60
2022/07/14 00:41:53;;;;;;;11.65;5.30;;;;;;;-141.48;100.00;69781.59;4951461;30;20104;-62
2022/07/14 00:44:23;;;;;;;6.22;5.43;;;;;;;-141.48;100.00;69781.59;4951695;30;20027;-62
2022/07/14 00:46:54;;;;;;;5.57;5.22;;;;;;;-141.48;100.00;69781.59;4951560;29;20063;-63
2022/07/14 00:49:34;;;;;;;8.70;5.07;;;;;;;-141.48;100.00;69781.59;4935851;30;20091;-63
2022/07/14 00:52:05;;;;;;;4.80;4.53;;;;;;;-141.48;100.00;69781.59;4951805;30;20043;-63
2022/07/14 00:54:35;;;;;;;9.18;4.78;;;;;;;-141.48;100.00;69781.59;4951164;30;20061;-62
2022/07/14 00:57:06;;;;;;;5.10;4.90;;;;;;;-141.48;100.00;69781.59;4951313;29;20430;-62
2022/07/14 00:59:36;;;;;;;12.88;6.47;;;;;;;-141.48;100.00;69781.59;4951713;30;20042;-63
2022/07/14 01:02:07;;;;;;;5.22;4.78;;;;;;;-141.48;100.00;69781.59;4935146;30;20031;-62
2022/07/14 01:04:37;;;;;;;7.47;4.80;;;;;;;-141.48;100.00;69781.59;4951016;30;20039;-63
2022/07/14 01:07:07;;;;;;;12.00;6.13;;;;;;;-141.48;100.00;69781.59;4951554;29;20447;-62
2022/07/14 01:09:42;;;;;;;8.27;5.95;;;;;;;-141.48;100.00;69781.59;4951397;30;20086;-59
2022/07/14 01:12:13;;;;;;;6.40;5.80;;;;;;;-141.48;100.00;69781.59;4951208;30;20054;-62
2022/07/14 01:14:44;;;;;;;8.57;6.13;;;;;;;-141.48;100.00;69781.59;4950620;30;20100;-62
2022/07/14 01:17:15;;;;;;;6.30;5.85;;;;;;;-141.48;100.00;69781.59;4934475;30;20027;-63
2022/07/14 01:19:48;;;;;;;5.68;5.00;;;;;;;-141.48;100.00;69781.59;4950805;30;20047;-62
2022/07/14 01:22:18;;;;;;;8.95;5.38;;;;;;;-141.48;100.00;69781.59;4950990;30;20031;-62
2022/07/14 01:24:48;;;;;;;7.55;5.03;;;;;;;-141.48;100.00;69781.59;4950369;29;20019;-62
2022/07/14 01:27:19;;;;;;;4.30;4.03;;;;;;;-141.48;100.00;69781.59;4950499;29;20031;-60
2022/07/14 01:29:49;;;;;;;5.85;5.28;;;;;;;-141.48;100.00;69781.59;4950524;30;20031;-61
2022/07/14 01:32:19;;;;;;;9.50;6.53;;;;;;;-141.48;100.00;69781.59;4950490;30;20027;-62
2022/07/14 01:34:50;;;;;;;9.30;5.07;;;;;;;-141.48;100.00;69781.59;4950288;30;20034;-61
2022/07/14 01:37:22;;;;;;;11.73;4.95;;;;;;;-141.48;100.00;69781.59;4950690;29;20031;-62
2022/07/14 01:39:53;;;;;;;5.60;5.07;;;;;;;-141.48;100.00;69781.59;4934562;30;20074;-62
2022/07/14 01:42:24;;;;;;;7.75;4.35;;;;;;;-141.48;100.00;69781.59;4950843;30;20031;-62
2022/07/14 01:44:54;;;;;;;5.55;4.85;;;;;;;-141.48;100.00;69781.59;4950003;30;20363;-61
2022/07/14 01:47:25;;;;;;;9.35;6.07;;;;;;;-141.48;100.00;69781.59;4950466;29;20034;-62
2022/07/14 01:49:56;;;;;;;7.63;6.18;;;;;;;-141.48;100.00;69781.59;4950869;30;20402;-62
2022/07/14 01:52:26;;;;;;;10.60;5.22;;;;;;;-141.48;100.00;69781.59;4950215;30;20114;-62
2022/07/14 01:54:56;;;;;;;7.03;6.25;;;;;;;-141.48;100.00;69781.59;4933796;30;20507;-60
2022/07/14 01:57:27;;;;;;;8.93;6.25;;;;;;;-141.48;100.00;69781.59;4950439;29;20123;-62
2022/07/14 01:59:58;;;;;;;8.55;7.75;;;;;;;-141.48;100.00;69781.59;4950551;30;20024;-62
2022/07/14 02:02:28;;;;;;;10.52;5.57;;;;;;;-141.48;100.00;69781.59;4950341;30;20412;-62
2022/07/14 02:04:58;;;;;;;8.05;5.47;;;;;;;-141.48;100.00;69781.59;4950103;30;20161;-62
2022/07/14 02:07:29;;;;;;;5.60;5.30;;;;;;;-141.48;100.00;69781.59;4950491;29;20031;-62
2022/07/14 02:12:48;;;;;;;9.70;7.00;;;;;;;-141.48;100.00;69781.59;4950441;30;20042;-62
2022/07/14 02:15:18;;;;;;;6.88;6.38;;;;;;;-141.48;100.00;69781.59;4933584;30;20430;-62
2022/07/14 02:17:49;;;;;;;6.10;5.55;;;;;;;-141.48;100.00;69781.59;4933850;30;20054;-62
2022/07/14 02:20:19;;;;;;;6.63;5.82;;;;;;;-141.48;100.00;69781.59;4949698;30;20023;-62
2022/07/14 02:22:50;;;;;;;6.90;5.78;;;;;;;-141.48;100.00;69781.59;4949929;30;20031;-62
2022/07/14 02:25:20;;;;;;;8.98;6.55;;;;;;;-141.48;100.00;69781.59;4949668;30;20066;-61
2022/07/14 02:27:51;;;;;;;5.75;5.28;;;;;;;-141.48;100.00;69781.59;4950396;29;20031;-62
2022/07/14 02:30:21;;;;;;;5.97;5.57;;;;;;;-141.48;100.00;69781.59;4950221;30;20032;-61
2022/07/14 02:32:52;;;;;;;9.65;6.15;;;;;;;-141.48;100.00;69781.59;4948936;30;20501;-62
2022/07/14 02:35:23;;;;;;;5.57;5.07;;;;;;;-141.48;100.00;69781.59;4949603;30;20031;-62
2022/07/14 02:37:53;;;;;;;10.43;6.30;;;;;;;-141.48;100.00;69781.59;4950196;29;20500;-61
2022/07/14 02:40:24;;;;;;;6.32;5.63;;;;;;;-141.48;100.00;69781.59;4918098;30;20145;-62
2022/07/14 02:42:54;;;;;;;8.13;5.57;;;;;;;-141.48;100.00;69781.59;4949515;30;20035;-62
2022/07/14 02:45:25;;;;;;;11.57;6.80;;;;;;;-141.48;100.00;69781.59;4948791;30;20036;-62
2022/07/14 02:47:55;;;;;;;10.35;5.85;;;;;;;-141.48;100.00;69781.59;4949528;29;20034;-62
2022/07/14 02:50:25;;;;;;;14.57;6.40;;;;;;;-141.48;100.00;69781.59;4950114;30;20043;-60
2022/07/14 02:52:56;;;;;;;7.05;5.85;;;;;;;-141.48;100.00;69781.59;4949328;30;20117;-61
2022/07/14 02:55:26;;;;;;;6.28;5.78;;;;;;;-141.48;100.00;69781.59;4933340;30;20057;-62
2022/07/14 02:57:56;;;;;;;6.82;6.30;;;;;;;-141.48;100.00;69781.59;4949578;29;20024;-62
2022/07/14 03:00:27;;;;;;;5.38;4.82;;;;;;;-141.48;100.00;69781.59;4949750;30;20034;-63
2022/07/14 03:03:00;;;;;;;6.00;5.57;;;;;;;-141.48;100.00;69781.59;4949949;30;20031;-62
2022/07/14 03:05:30;;;;;;;6.05;5.55;;;;;;;-141.48;100.00;69781.59;4949852;30;20342;-62
2022/07/14 03:08:00;;;;;;;8.27;6.22;;;;;;;-141.48;100.00;69781.59;4949877;29;20152;-61
2022/07/14 03:10:31;;;;;;;9.38;5.20;;;;;;;-141.48;100.00;69781.59;4949770;30;20114;-62
2022/07/14 03:13:03;;;;;;;5.82;5.07;;;;;;;-141.48;100.00;69781.59;4949759;30;20100;-63
2022/07/14 03:15:33;;;;;;;8.73;6.15;;;;;;;-141.48;100.00;69781.59;4949243;30;20039;-62
2022/07/14 03:18:04;;;;;;;8.68;7.20;;;;;;;-141.48;100.00;69781.59;4933283;30;20469;-63
2022/07/14 03:20:34;;;;;;;6.95;5.38;;;;;;;-141.48;100.00;69781.59;4949299;30;20043;-63
2022/07/14 03:23:05;;;;;;;6.95;6.45;;;;;;;-141.48;100.00;69781.59;4950068;30;20027;-63
2022/07/14 03:25:35;;;;;;;14.85;5.63;;;;;;;-141.48;100.00;69781.59;4948122;29;20035;-63
2022/07/14 03:28:06;;;;;;;5.95;5.22;;;;;;;-141.48;100.00;69781.59;4949678;30;20165;-62
2022/07/14 03:30:37;;;;;;;6.32;4.97;;;;;;;-141.48;100.00;69781.59;4933118;30;20031;-62
2022/07/14 03:33:08;;;;;;;5.80;4.95;;;;;;;-141.48;100.00;69781.59;4949792;30;20070;-61
2022/07/14 03:35:39;;;;;;;12.90;5.80;;;;;;;-141.48;100.00;69781.59;4933026;29;20084;-62
2022/07/14 03:38:10;;;;;;;6.88;5.78;;;;;;;-141.48;100.00;69781.59;4933306;30;20034;-63
2022/07/14 03:40:40;;;;;;;5.38;4.88;;;;;;;-141.48;100.00;69781.59;4949246;30;20465;-61
2022/07/14 03:43:11;;;;;;;6.57;6.03;;;;;;;-141.48;100.00;69781.59;4949071;30;20118;-62
2022/07/14 03:45:41;;;;;;;6.70;5.45;;;;;;;-141.48;100.00;69781.59;4949028;29;20034;-63
2022/07/14 03:48:12;;;;;;;8.13;5.93;;;;;;;-141.48;100.00;69781.59;4949169;29;20365;-62
2022/07/14 03:50:42;;;;;;;11.88;6.85;;;;;;;-141.48;100.00;69781.59;4952431;30;20035;-63
2022/07/14 03:53:12;;;;;;;9.10;5.75;;;;;;;-141.48;100.00;69781.59;4952566;30;20519;-63
2022/07/14 03:55:43;;;;;;;14.07;5.25;;;;;;;-141.48;100.00;69781.59;4952301;29;20122;-63
2022/07/14 03:58:14;;;;;;;21.52;7.32;;;;;;;-141.48;100.00;69781.59;4952672;30;20409;-63
2022/07/14 04:00:44;;;;;;;5.53;4.60;;;;;;;-141.48;100.00;69781.59;4952742;30;20027;-63
2022/07/14 04:03:15;;;;;;;5.78;5.05;;;;;;;-141.48;100.00;69781.59;4953115;30;20556;-63
2022/07/14 04:05:48;;;;;;;8.00;6.75;;;;;;;-141.48;100.00;69781.59;4952170;29;20031;-63
2022/07/14 04:08:19;;;;;;;7.97;5.15;;;;;;;-141.48;100.00;69781.59;4952256;30;20031;-63
2022/07/14 04:10:49;;;;;;;10.57;6.85;;;;;;;-141.48;100.00;69781.59;4952459;30;20100;-63
2022/07/14 04:13:19;;;;;;;5.30;4.30;;;;;;;-141.48;100.00;69781.59;4952474;30;20030;-63
2022/07/14 04:15:50;;;;;;;7.65;6.05;;;;;;;-141.48;100.00;69781.59;4951897;29;20038;-63
2022/07/14 04:18:20;;;;;;;6.43;5.93;;;;;;;-141.48;100.00;69781.59;4935863;30;20046;-61
2022/07/14 04:20:51;;;;;;;5.75;5.00;;;;;;;-141.48;100.00;69781.59;4935880;30;20503;-62
2022/07/14 04:23:21;;;;;;;5.43;4.93;;;;;;;-141.48;100.00;69781.59;4951968;30;20091;-62
2022/07/14 04:25:52;;;;;;;10.07;5.15;;;;;;;-141.48;100.00;69781.59;4952199;29;20173;-63
2022/07/14 04:28:22;;;;;;;9.75;5.32;;;;;;;-141.48;100.00;69781.59;4951700;30;20385;-60
2022/07/14 04:30:53;;;;;;;13.00;6.68;;;;;;;-141.48;100.00;69781.59;4935322;30;20180;-59
2022/07/14 04:33:24;;;;;;;6.97;5.35;;;;;;;-141.48;100.00;69781.59;4951391;30;20385;-62
2022/07/14 04:35:54;;;;;;;7.80;5.07;;;;;;;-141.48;100.00;69781.59;4935374;29;20050;-62
2022/07/14 04:38:25;;;;;;;5.05;4.28;;;;;;;-141.48;100.00;69781.59;4951391;30;20090;-62
2022/07/14 04:40:56;;;;;;;9.95;6.00;;;;;;;-141.48;100.00;69781.59;4983207;24;20212;-63
2022/07/14 04:43:26;;;;;;;6.40;5.97;;;;;;;-141.48;100.00;69781.59;4971615;29;20027;-62
2022/07/14 04:45:57;;;;;;;6.20;5.00;;;;;;;-141.48;100.00;69781.59;4971978;29;20030;-63
2022/07/14 04:48:27;;;;;;;5.80;5.28;;;;;;;-141.48;100.00;69781.59;4972082;29;20042;-62
2022/07/14 04:53:46;;;;;;;12.65;6.38;;;;;;;-141.48;100.00;69781.59;4971792;29;20091;-63
2022/07/14 04:56:16;;;;;;;6.07;5.53;;;;;;;-141.48;100.00;69781.59;4971897;29;20504;-63
2022/07/14 04:58:47;;;;;;;12.85;4.97;;;;;;;-141.48;100.00;69781.59;4955660;29;20037;-63
2022/07/14 05:01:17;;;;;;;6.53;5.95;;;;;;;-141.48;100.00;69781.59;4970761;29;20110;-63
2022/07/14 05:03:48;;;;;;;14.20;4.82;;;;;;;-141.48;100.00;69781.59;4971533;29;20031;-63
2022/07/14 05:06:18;;;;;;;10.90;5.45;;;;;;;-141.48;100.00;69781.59;4971732;29;20060;-61
2022/07/14 05:08:48;;;;;;;12.85;5.10;;;;;;;-141.48;100.00;69781.59;4971773;29;20031;-63
2022/07/14 05:11:19;;;;;;;13.77;6.32;;;;;;;-141.48;100.00;69781.59;4971955;29;20110;-62
2022/07/14 05:13:53;;;;;;;4.70;4.18;;;;;;;-141.48;100.00;69781.59;4970929;29;20396;-62
2022/07/14 05:16:23;;;;;;;6.93;5.88;;;;;;;-141.48;100.00;69781.59;4971491;29;20476;-62
2022/07/14 05:18:55;;;;;;;9.68;5.70;;;;;;;-141.48;100.00;69781.59;4971513;29;20038;-63
2022/07/14 05:21:26;;;;;;;11.30;6.47;;;;;;;-141.48;100.00;69781.59;4971611;29;20519;-64
2022/07/14 05:23:57;;;;;;;16.88;7.68;;;;;;;-141.48;100.00;69781.59;4970896;29;20054;-60
2022/07/14 05:26:28;;;;;;;4.85;4.55;;;;;;;-141.48;100.00;69781.59;4971098;29;20033;-62
2022/07/14 05:28:58;;;;;;;7.32;5.68;;;;;;;-141.48;100.00;69781.59;4971371;29;20031;-63
2022/07/14 05:31:29;;;;;;;6.57;6.10;;;;;;;-141.48;100.00;69781.59;4971205;29;20041;-62
2022/07/14 05:33:59;;;;;;;7.13;6.63;;;;;;;-141.48;100.00;69781.59;4970938;29;20113;-62
2022/07/14 05:36:29;;;;;;;6.85;6.22;;;;;;;-141.48;100.00;69781.59;4971257;29;20390;-62
2022/07/14 05:39:00;;;;;;;9.98;4.75;;;;;;;-141.48;100.00;69781.59;4970707;29;20493;-62
2022/07/14 05:41:31;;;;;;;21.15;9.20;;;;;;;-141.48;100.00;69781.59;4970997;29;20039;-62
2022/07/14 05:44:01;;;;;;;12.32;6.82;;;;;;;-141.48;100.00;69781.59;4970937;29;20395;-63
2022/07/14 05:46:32;;;;;;;12.75;6.10;;;;;;;-141.48;100.00;69781.59;4971136;29;20563;-63
2022/07/14 05:49:02;;;;;;;8.05;7.30;;;;;;;-141.48;100.00;69781.59;4955111;29;20050;-62
2022/07/14 05:51:33;;;;;;;6.65;5.65;;;;;;;-141.48;100.00;69781.59;4971195;29;20026;-63
2022/07/14 05:54:03;;;;;;;5.07;4.72;;;;;;;-141.48;100.00;69781.59;4971194;29;20023;-62
2022/07/14 05:56:34;;;;;;;7.10;6.47;;;;;;;-141.48;100.00;69781.59;4970876;29;20171;-63
2022/07/14 05:59:04;;;;;;;9.60;6.43;;;;;;;-141.48;100.00;69781.59;4971000;29;20030;-62
2022/07/14 06:01:34;;;;;;;8.27;6.50;;;;;;;-141.48;100.00;69781.59;4954624;29;20200;-63
2022/07/14 06:04:05;;;;;;;8.43;7.35;;;;;;;-141.48;100.00;69781.59;4954181;29;20035;-61
2022/07/14 06:06:36;;;;;;;11.25;8.20;;;;;;;-141.48;100.00;69781.59;4954447;29;20026;-61
2022/07/14 06:09:06;;;;;;;7.28;6.57;;;;;;;-141.48;100.00;69781.59;4970634;29;20117;-63
2022/07/14 06:11:39;;;;;;;6.50;5.88;;;;;;;-141.48;100.00;69781.59;4970415;29;20088;-64
2022/07/14 06:14:10;;;;;;;11.38;8.73;;;;;;;-141.48;100.00;69781.59;4970203;29;20488;-60
2022/07/14 06:16:41;;;;;;;9.52;7.38;;;;;;;-141.48;100.00;69781.59;4970608;29;20037;-61
2022/07/14 06:19:12;;;;;;;5.93;5.53;;;;;;;-141.48;100.00;69781.59;4954283;29;20041;-62
2022/07/14 06:21:43;;;;;;;7.00;6.28;;;;;;;-141.48;100.00;69781.59;4970519;29;20484;-62
2022/07/14 06:24:13;;;;;;;11.27;7.05;;;;;;;-141.48;100.00;69781.59;4953828;29;20463;-63
2022/07/14 06:26:44;;;;;;;6.93;6.25;;;;;;;-141.48;100.00;69781.59;4970251;29;20049;-63
2022/07/14 06:29:14;;;;;;;18.58;7.53;;;;;;;-141.48;100.00;69781.59;4970458;29;20023;-62
2022/07/14 06:31:45;;;;;;;7.53;6.63;;;;;;;-141.48;100.00;69781.59;4954229;29;20042;-62
2022/07/14 06:34:15;;;;;;;12.40;6.03;;;;;;;-141.48;100.00;69781.59;4970469;29;20027;-62
2022/07/14 06:36:45;;;;;;;8.05;6.93;;;;;;;-141.48;100.00;69781.59;4953989;29;20081;-61
2022/07/14 06:39:16;;;;;;;9.32;8.00;;;;;;;-141.48;100.00;69781.59;4969966;29;20500;-61
2022/07/14 06:41:46;;;;;;;15.32;6.78;;;;;;;-141.48;100.00;69781.59;4953828;29;20066;-63
2022/07/14 06:44:17;;;;;;;7.53;6.88;;;;;;;-141.48;100.00;69781.59;4953765;29;20113;-63
2022/07/14 06:46:47;;;;;;;16.48;6.75;;;;;;;-141.48;100.00;69781.59;4970234;29;20031;-60
2022/07/14 06:49:18;;;;;;;17.23;6.47;;;;;;;-141.48;100.00;69781.59;4969972;29;20457;-63
2022/07/14 06:51:48;;;;;;;9.75;6.28;;;;;;;-141.48;100.00;69781.59;4954203;29;20030;-62
2022/07/14 06:54:19;;;;;;;9.98;8.25;;;;;;;-141.48;100.00;69781.59;4969644;29;20030;-62
2022/07/14 06:56:49;;;;;;;26.42;6.53;;;;;;;-141.48;100.00;69781.59;4970431;29;20084;-62
2022/07/14 06:59:20;;;;;;;7.38;5.93;;;;;;;-141.48;100.00;69781.59;4969991;29;20022;-62
2022/07/14 07:01:50;;;;;;;11.00;8.32;;;;;;;-141.48;100.00;69781.59;4969833;29;20502;-60
2022/07/14 07:04:21;;;;;;;8.15;7.10;;;;;;;-141.48;100.00;69781.59;4969627;29;20420;-60
2022/07/14 07:06:52;;;;;;;11.82;5.60;;;;;;;-141.48;100.00;69781.59;4953497;29;20027;-61
2022/07/14 07:09:22;;;;;;;10.38;6.97;;;;;;;-141.48;100.00;69781.59;4953536;29;20039;-62
2022/07/14 07:11:52;;;;;;;5.28;4.72;;;;;;;-141.48;100.00;69781.59;4953683;29;20411;-60
2022/07/14 07:14:23;;;;;;;9.43;4.30;;;;;;;-141.48;100.00;69781.59;4969319;29;20026;-60
2022/07/14 07:16:53;;;;;;;17.15;6.70;;;;;;;-141.48;100.00;69781.59;4969757;29;20122;-60
2022/07/14 07:19:26;;;;;;;10.23;6.93;;;;;;;-141.48;100.00;69781.59;4969700;29;20060;-60
2022/07/14 07:21:57;;;;;;;6.22;5.80;;;;;;;-141.48;100.00;69781.59;4969751;29;20051;-63
2022/07/14 07:24:28;;;;;;;8.27;5.15;;;;;;;-141.48;100.00;69781.59;4955338;29;20027;-60
2022/07/14 07:26:58;;;;;;;11.18;6.45;;;;;;;-141.48;100.00;69781.59;4973219;29;20058;-62
2022/07/14 07:29:29;;;;;;;5.07;4.78;;;;;;;-141.48;100.00;69781.59;4973713;29;20023;-62
2022/07/14 07:31:59;;;;;;;8.50;5.68;;;;;;;-141.48;100.00;69781.59;4973448;29;20500;-62
2022/07/14 07:34:30;;;;;;;9.70;4.90;;;;;;;-141.48;100.00;69781.59;4973342;29;20393;-61
2022/07/14 07:37:01;;;;;;;5.63;5.00;;;;;;;-141.48;100.00;69781.59;4973103;29;20038;-61
2022/07/14 07:39:33;;;;;;;6.65;4.82;;;;;;;-141.48;100.00;69781.59;4973038;29;20039;-62
2022/07/14 07:42:04;;;;;;;4.65;4.38;;;;;;;-141.48;100.00;69781.59;4973389;29;20026;-60
2022/07/14 07:44:36;;;;;;;5.15;4.57;;;;;;;-141.48;100.00;69781.59;4972806;29;20046;-63
2022/07/14 07:47:06;;;;;;;11.70;5.30;;;;;;;-141.48;100.00;69781.59;4972758;29;20031;-61
2022/07/14 07:49:37;;;;;;;7.07;4.28;;;;;;;-141.48;100.00;69781.59;4972764;29;20034;-62
2022/07/14 07:52:07;;;;;;;5.07;4.68;;;;;;;-141.48;100.00;69781.59;4973063;29;20046;-61
2022/07/14 07:54:37;;;;;;;4.18;3.95;;;;;;;-141.48;100.00;69781.59;4972759;29;20042;-62
2022/07/14 07:57:08;;;;;;;8.48;5.22;;;;;;;-141.48;100.00;69781.59;4972781;29;20034;-62
2022/07/14 07:59:39;;;;;;;4.78;3.85;;;;;;;-141.48;100.00;69781.59;4972916;29;20140;-61
2022/07/14 08:02:09;;;;;;;3.65;3.28;;;;;;;-141.48;100.00;69781.59;4972674;29;20037;-61
2022/07/14 08:04:40;;;;;;;4.35;4.15;;;;;;;-141.48;100.00;69781.59;4972159;29;20031;-61
2022/07/14 08:07:10;;;;;;;12.75;4.90;;;;;;;-141.48;100.00;69781.59;4972580;29;20034;-62
2022/07/14 08:09:41;;;;;;;3.00;2.88;;;;;;;-141.48;100.00;69781.59;4972477;29;20034;-62
2022/07/14 08:12:11;;;;;;;4.93;3.55;;;;;;;-141.48;100.00;69781.59;4941593;29;20030;-64
2022/07/14 08:14:48;;;;;;;6.72;3.97;;;;;;;-141.48;100.00;69781.59;4972334;29;20548;-62
2022/07/14 08:17:21;;;;;;;3.47;2.58;;;;;;;-141.48;100.00;69781.59;4972632;29;20115;-62
2022/07/14 08:19:51;;;;;;;3.40;3.17;;;;;;;-141.48;100.00;69781.59;4972483;29;20168;-63
2022/07/14 08:22:26;;;;;;;6.82;3.55;;;;;;;-141.48;100.00;69781.59;4972271;29;20480;-63
2022/07/14 08:24:57;;;;;;;3.25;3.05;;;;;;;-141.48;100.00;69781.59;4972230;29;20042;-63
2022/07/14 08:27:28;;;;;;;4.95;3.85;;;;;;;-141.48;100.00;69781.59;4972063;29;20023;-62
2022/07/14 08:29:59;;;;;;;9.63;3.80;;;;;;;-141.48;100.00;69781.59;4956501;29;20027;-63
2022/07/14 08:32:47;;;;;;;6.03;4.53;;;;;;;-141.48;100.00;69781.59;4972531;29;20484;-63
2022/07/14 08:35:20;;;;;;;3.90;3.63;;;;;;;-141.48;100.00;69781.59;4971747;29;20077;-63
2022/07/14 08:37:52;;;;;;;5.75;4.75;;;;;;;-141.48;100.00;69781.59;4955771;29;20106;-64
2022/07/14 08:40:24;;;;;;;7.18;3.90;;;;;;;-141.48;100.00;69781.59;4971667;29;20039;-63
2022/07/14 08:42:56;;;;;;;4.38;3.13;;;;;;;-141.48;100.00;69781.59;4955676;29;20041;-63
2022/07/14 08:45:27;;;;;;;6.97;3.50;;;;;;;-141.48;100.00;69781.59;4971387;29;20535;-63
2022/07/14 08:47:57;;;;;;;3.75;3.15;;;;;;;-141.48;100.00;69781.59;4971721;29;20022;-63
2022/07/14 08:50:28;;;;;;;10.75;5.07;;;;;;;-141.48;100.00;69781.59;4971928;29;20038;-64
2022/07/14 08:53:03;;;;;;;3.22;3.13;;;;;;;-141.48;100.00;69781.59;4971873;29;20019;-63
2022/07/14 08:55:34;;;;;;;4.75;4.35;;;;;;;-141.48;100.00;69781.59;4971756;29;20023;-63
2022/07/14 08:58:04;;;;;;;3.13;3.03;;;;;;;-141.48;100.00;69781.59;4971828;29;20050;-63
2022/07/14 09:00:34;;;;;;;5.70;3.75;;;;;;;-141.48;100.00;69781.59;4971502;29;20076;-63
2022/07/14 09:03:05;;;;;;;8.20;5.22;;;;;;;-141.48;100.00;69781.59;4955666;29;20489;-64
2022/07/14 09:05:43;;;;;;;9.55;3.85;;;;;;;-141.48;100.00;69781.59;4971502;29;20124;-63
2022/07/14 09:08:15;;;;;;;4.18;3.83;;;;;;;-141.48;100.00;69781.59;4971469;29;20035;-63
2022/07/14 09:10:46;;;;;;;4.80;3.25;;;;;;;-141.48;100.00;69781.59;4971449;29;20031;-63
2022/07/14 09:13:21;;;;;;;4.03;3.72;;;;;;;-141.48;100.00;69781.59;4971451;29;20043;-63
2022/07/14 09:16:14;;;;;;;6.18;3.50;;;;;;;-141.48;100.00;69781.59;4971290;29;20096;-63
2022/07/14 09:19:02;;;;;;;4.88;4.57;;;;;;;-141.48;100.00;69781.59;4955186;29;20031;-63
2022/07/14 09:21:33;;;;;;;4.93;4.13;;;;;;;-141.48;100.00;69781.59;4971123;29;20033;-64
2022/07/14 09:24:08;;;;;;;2.00;2.00;;;;;;;-141.48;100.00;69781.59;4954856;29;20404;-63
2022/07/14 09:26:45;;;;;;;4.70;4.05;;;;;;;-141.48;100.00;69781.59;4971132;29;20037;-63
2022/07/14 09:29:20;;;;;;;9.32;3.83;;;;;;;-141.48;100.00;69781.59;4971029;29;20496;-63
2022/07/14 09:31:52;;;;;;;7.30;3.95;;;;;;;-141.48;100.00;69781.59;4954837;29;20337;-63
2022/07/14 09:34:26;;;;;;;4.25;3.80;;;;;;;-141.48;100.00;69781.59;4970776;29;20113;-63
2022/07/14 09:37:29;;;;;;;6.93;4.15;;;;;;;-141.48;100.00;69781.59;4940039;29;20034;-63
2022/07/14 09:39:59;;;;;;;8.68;4.85;;;;;;;-141.48;100.00;69781.59;4915317;29;20067;-63
2022/07/14 09:43:06;;;;;;;2.85;2.65;;;;;;;-141.48;100.00;69781.59;4971074;29;20035;-62
2022/07/14 09:45:39;;;;;;;3.33;3.13;;;;;;;-141.48;100.00;69781.59;4894510;30;20040;-64
2022/07/14 09:48:11;;;;;;;3.30;2.47;;;;;;;-141.48;100.00;69781.59;4958993;29;20043;-63
2022/07/14 09:50:47;;;;;;;3.70;3.40;;;;;;;-141.48;100.00;69781.59;4970764;29;20103;-63
2022/07/14 09:53:32;;;;;;;3.70;3.50;;;;;;;-141.48;100.00;69781.59;4970586;29;20034;-63
2022/07/14 09:56:08;;;;;;;4.90;3.33;;;;;;;-141.48;100.00;69781.59;4970696;29;20033;-62
2022/07/14 09:58:51;;;;;;;3.03;2.55;;;;;;;-141.48;100.00;69781.59;4971127;29;20107;-63
2022/07/14 10:01:24;;;;;;;2.72;2.63;;;;;;;-141.48;100.00;69781.59;4970817;29;20045;-63
2022/07/14 10:03:55;;;;;;;3.15;2.95;;;;;;;-141.48;100.00;69781.59;4970484;29;20034;-64
2022/07/14 10:06:27;;;;;;;2.45;2.25;;;;;;;-141.48;100.00;69781.59;4954369;29;20100;-63
2022/07/14 10:08:59;;;;;;;6.97;3.08;;;;;;;-141.48;100.00;69781.59;4970885;29;20114;-63
2022/07/14 10:11:30;;;;;;;2.65;2.55;;;;;;;-141.48;100.00;69781.59;4970398;29;20073;-64
2022/07/14 10:14:01;;;;;;;3.10;2.72;;;;;;;-141.48;100.00;69781.59;4970193;29;20030;-64
2022/07/14 10:16:33;;;;;;;5.10;3.30;;;;;;;-141.48;100.00;69781.59;4970317;29;20034;-64
2022/07/14 10:19:04;;;;;;;2.50;2.40;;;;;;;-141.48;100.00;69781.59;4970340;29;20027;-63
2022/07/14 10:21:36;;;;;;;7.93;2.47;;;;;;;-141.48;100.00;69781.59;4969997;29;20031;-63
2022/07/14 10:24:08;;;;;;;6.68;3.65;;;;;;;-141.48;100.00;69781.59;4969582;29;20112;-61
2022/07/14 10:26:38;;;;;;;2.47;2.22;;;;;;;-141.48;100.00;69781.59;4970351;29;20019;-62
2022/07/14 10:29:09;;;;;;;4.97;3.55;;;;;;;-141.48;100.00;69781.59;4970434;29;20322;-64
2022/07/14 10:31:59;;;;;;;2.28;2.17;;;;;;;-141.48;100.00;69781.59;4970156;29;20039;-64
2022/07/14 10:34:52;;;;;;;3.17;3.00;;;;;;;-141.48;100.00;69781.59;4968891;29;20456;-62
2022/07/14 10:37:41;;;;;;;3.92;2.40;;;;;;;-141.48;100.00;69781.59;4970025;29;20038;-62
2022/07/14 10:40:39;;;;;;;2.95;2.70;;;;;;;-141.48;100.00;69781.59;4981704;24;20050;-61
2022/07/14 10:43:15;;;;;;;5.97;3.38;;;;;;;-141.48;100.00;69781.59;4968377;29;20495;-61
2022/07/14 10:45:51;;;;;;;7.28;3.35;;;;;;;-141.48;100.00;69781.59;4968470;29;20106;-61
2022/07/14 10:48:31;;;;;;;4.28;3.15;;;;;;;-141.48;100.00;69781.59;4968492;29;20051;-61
2022/07/14 10:51:14;;;;;;;8.48;4.07;;;;;;;-141.48;100.00;69781.59;4968679;29;20038;-60
2022/07/14 10:54:06;;;;;;;3.58;3.38;;;;;;;-141.48;100.00;69781.59;4968304;29;20030;-60
2022/07/14 10:56:38;;;;;;;2.50;2.40;;;;;;;-141.48;100.00;69781.59;4968618;29;20027;-61
2022/07/14 10:59:33;;;;;;;5.50;3.58;;;;;;;-141.48;100.00;69781.59;4970155;29;20356;-61
2022/07/14 11:02:12;;;;;;;3.40;2.58;;;;;;;-141.48;100.00;69781.59;4962881;29;20131;-64
2022/07/14 11:04:58;;;;;;;6.82;3.05;;;;;;;-141.48;100.00;69781.59;4971066;29;20377;-59
2022/07/14 11:07:44;;;;;;;3.70;2.78;;;;;;;-141.48;100.00;69781.59;4971088;29;20046;-61
2022/07/14 11:10:18;;;;;;;3.15;2.72;;;;;;;-141.48;100.00;69781.59;4972378;29;20180;-62
2022/07/14 11:13:06;;;;;;;5.50;3.13;;;;;;;-141.48;100.00;69781.59;4972566;29;20353;-61
2022/07/14 11:15:40;;;;;;;3.10;2.58;;;;;;;-141.48;100.00;69781.59;4971970;29;20034;-61
2022/07/14 11:18:21;;;;;;;5.18;2.47;;;;;;;-141.48;100.00;69781.59;4972306;29;20027;-62
2022/07/14 11:20:51;;;;;;;4.85;3.40;;;;;;;-141.48;100.00;69781.59;4972840;29;20035;-62
2022/07/14 11:23:24;;;;;;;2.20;2.10;;;;;;;-141.48;100.00;69781.59;4971984;29;20046;-62
2022/07/14 11:25:57;;;;;;;3.30;3.00;;;;;;;-141.48;100.00;69781.59;4972849;29;20038;-62
2022/07/14 11:28:34;;;;;;;5.78;3.22;;;;;;;-141.48;100.00;69781.59;4972167;29;20031;-62
2022/07/14 11:31:23;;;;;;;3.05;2.85;;;;;;;-141.48;100.00;69781.59;4972546;29;20080;-62
2022/07/14 11:37:01;;;;;;;11.68;4.72;;;;;;;-141.48;100.00;69781.59;4972188;29;20103;-62
2022/07/14 11:39:42;;;;;;;3.95;3.53;;;;;;;-141.48;100.00;69781.59;4971698;29;20109;-62